Time;durP1;ratioP1;P1;durP2;ratioP2;P2;SDS_P1;SDS_P2;PMS_P1;PMS_P2;Temp;Humidity;BMP_temperature;BMP_pressure;BME280_temperature;BME280_humidity;BME280_pressure;Samples;Min_cycle;Max_cycle;Signal;HPM_P1;HPM_P2
2021/03/03 00:02:08;;;;;;;21.35;14.60;;;6.40;99.90;;;;;;4997229;28;20304;-80
2021/03/03 00:04:34;;;;;;;27.05;13.73;;;6.50;99.90;;;;;;4992615;28;20218;-80
2021/03/03 00:07:01;;;;;;;21.38;12.75;;;6.40;99.90;;;;;;4979374;28;20217;-80
2021/03/03 00:09:27;;;;;;;21.75;13.50;;;6.60;99.90;;;;;;4981575;28;20197;-80
2021/03/03 00:11:54;;;;;;;24.77;12.73;;;6.30;99.90;;;;;;4998465;28;20213;-80
2021/03/03 00:14:20;;;;;;;23.48;12.40;;;6.40;99.90;;;;;;4994383;28;20264;-80
2021/03/03 00:16:47;;;;;;;23.58;12.60;;;6.60;99.90;;;;;;4978530;28;20202;-80
2021/03/03 00:19:13;;;;;;;23.55;13.25;;;6.40;99.90;;;;;;4993637;28;20224;-80
2021/03/03 00:21:40;;;;;;;27.00;14.40;;;6.50;99.90;;;;;;4997356;28;20209;-80
2021/03/03 00:24:07;;;;;;;20.50;12.15;;;6.40;99.90;;;;;;5041778;22;20239;-84
2021/03/03 00:26:33;;;;;;;21.30;12.60;;;6.50;99.90;;;;;;5032806;28;20247;-83
2021/03/03 00:29:01;;;;;;;25.40;12.75;;;6.50;99.90;;;;;;5049647;28;20214;-83
2021/03/03 00:31:27;;;;;;;21.38;12.48;;;6.50;99.90;;;;;;5048118;28;20210;-86
2021/03/03 00:33:54;;;;;;;20.77;12.10;;;6.50;99.90;;;;;;5056406;28;20223;-84
2021/03/03 00:36:20;;;;;;;20.58;12.20;;;6.60;99.90;;;;;;5056738;28;20199;-83
2021/03/03 00:38:49;;;;;;;20.77;11.63;;;6.40;99.90;;;;;;5066917;28;20219;-83
2021/03/03 00:41:15;;;;;;;20.02;13.00;;;6.60;99.90;;;;;;5061640;28;20270;-84
2021/03/03 00:43:41;;;;;;;21.30;12.63;;;6.40;99.90;;;;;;5055008;28;20227;-85
2021/03/03 00:46:11;;;;;;;23.42;13.30;;;6.40;99.90;;;;;;5040698;28;20249;-87
2021/03/03 00:48:37;;;;;;;21.33;12.38;;;6.20;99.90;;;;;;5037723;28;20230;-86
2021/03/03 00:51:03;;;;;;;25.92;13.52;;;6.30;99.90;;;;;;5043780;28;20649;-86
2021/03/03 00:53:30;;;;;;;20.08;11.80;;;6.20;99.90;;;;;;5054859;28;20219;-85
2021/03/03 00:55:56;;;;;;;25.90;15.48;;;6.40;99.90;;;;;;5068249;28;20203;-86
2021/03/03 00:58:23;;;;;;;20.90;12.73;;;6.10;99.90;;;;;;5067464;28;20245;-86
2021/03/03 01:00:49;;;;;;;25.00;14.02;;;6.30;99.90;;;;;;5055480;28;20207;-86
2021/03/03 01:03:16;;;;;;;22.48;14.30;;;6.30;99.90;;;;;;5039633;28;20233;-87
2021/03/03 01:05:43;;;;;;;24.40;12.90;;;6.20;99.90;;;;;;5039700;28;20230;-86
2021/03/03 01:08:11;;;;;;;26.58;13.88;;;6.20;99.90;;;;;;5045933;28;20218;-86
2021/03/03 01:10:38;;;;;;;23.88;12.35;;;6.10;99.90;;;;;;5036077;28;20200;-86
2021/03/03 01:13:05;;;;;;;19.35;12.63;;;6.10;99.90;;;;;;5025185;28;20224;-86
2021/03/03 01:15:31;;;;;;;22.95;13.20;;;6.10;99.90;;;;;;5052300;28;20222;-87
2021/03/03 01:18:00;;;;;;;24.30;13.85;;;6.10;99.90;;;;;;5057524;28;20244;-86
2021/03/03 01:20:28;;;;;;;21.80;12.95;;;6.20;99.90;;;;;;5045485;28;20231;-86
2021/03/03 01:22:54;;;;;;;22.10;13.07;;;6.40;99.90;;;;;;5036120;28;20213;-87
2021/03/03 01:25:21;;;;;;;23.25;12.73;;;6.40;99.90;;;;;;5035409;28;20203;-87
2021/03/03 01:27:47;;;;;;;25.40;14.35;;;6.20;99.90;;;;;;5035480;28;20207;-86
2021/03/03 01:30:15;;;;;;;20.60;12.30;;;6.20;99.90;;;;;;5035096;28;20204;-85
2021/03/03 01:32:41;;;;;;;22.95;12.65;;;6.50;99.90;;;;;;5045715;28;20202;-86
2021/03/03 01:35:09;;;;;;;24.20;14.90;;;6.40;99.90;;;;;;5055329;28;20203;-86
2021/03/03 01:37:36;;;;;;;25.17;13.63;;;6.20;99.90;;;;;;5056431;28;20294;-86
2021/03/03 01:40:03;;;;;;;24.75;14.88;;;6.40;99.90;;;;;;5035130;28;20246;-86
2021/03/03 01:42:29;;;;;;;22.20;13.43;;;6.30;99.90;;;;;;5035677;28;20257;-85
2021/03/03 01:44:56;;;;;;;27.65;14.27;;;6.20;99.90;;;;;;5035029;28;20229;-87
2021/03/03 01:47:22;;;;;;;28.63;13.98;;;6.40;99.90;;;;;;5035068;28;20625;-86
2021/03/03 01:49:49;;;;;;;23.23;12.70;;;6.30;99.90;;;;;;5051393;28;20243;-86
2021/03/03 01:52:17;;;;;;;25.02;11.90;;;6.30;99.90;;;;;;5055845;28;20810;-86
2021/03/03 01:54:45;;;;;;;20.92;11.93;;;6.50;99.90;;;;;;5042111;28;20227;-86
2021/03/03 01:57:12;;;;;;;23.27;14.20;;;6.30;99.90;;;;;;5040768;28;20211;-86
2021/03/03 01:59:38;;;;;;;27.25;13.98;;;6.40;99.90;;;;;;5043522;28;20318;-86
2021/03/03 02:02:05;;;;;;;22.77;12.85;;;6.30;99.90;;;;;;5043418;28;20190;-86
2021/03/03 02:04:31;;;;;;;23.02;13.38;;;6.40;99.90;;;;;;5056618;28;20218;-86
2021/03/03 02:07:06;;;;;;;25.05;13.45;;;6.30;99.90;;;;;;5038550;28;20650;-86
2021/03/03 02:09:40;;;;;;;24.85;11.48;;;6.40;99.90;;;;;;5043823;28;20208;-85
2021/03/03 02:12:13;;;;;;;20.35;11.80;;;6.30;99.90;;;;;;5042324;28;20194;-86
2021/03/03 02:14:44;;;;;;;20.85;12.98;;;6.40;99.90;;;;;;5034908;28;20779;-86
2021/03/03 02:17:11;;;;;;;23.17;14.10;;;6.40;99.90;;;;;;5035352;28;20243;-86
2021/03/03 02:19:39;;;;;;;20.92;12.43;;;6.10;99.90;;;;;;5034951;28;20750;-86
2021/03/03 02:22:11;;;;;;;21.98;12.18;;;6.20;99.90;;;;;;5035736;28;20766;-87
2021/03/03 02:24:43;;;;;;;19.40;11.13;;;6.20;99.90;;;;;;5038625;28;20241;-87
2021/03/03 02:27:11;;;;;;;22.55;12.57;;;6.30;99.90;;;;;;5039351;28;20263;-85
2021/03/03 02:29:38;;;;;;;23.13;13.30;;;6.30;99.90;;;;;;5041288;28;20233;-86
2021/03/03 02:32:05;;;;;;;23.45;13.88;;;6.10;99.90;;;;;;5041349;28;20198;-87
2021/03/03 02:34:33;;;;;;;27.70;13.52;;;6.20;99.90;;;;;;5046463;28;20283;-87
2021/03/03 02:37:00;;;;;;;23.10;13.25;;;6.30;99.90;;;;;;5054987;28;20205;-86
2021/03/03 02:39:28;;;;;;;26.00;14.15;;;6.30;99.90;;;;;;5055064;28;20696;-86
2021/03/03 02:41:55;;;;;;;24.17;13.82;;;6.20;99.90;;;;;;5040442;28;20206;-86
2021/03/03 02:44:23;;;;;;;24.20;13.70;;;6.40;99.90;;;;;;5037690;28;20223;-86
2021/03/03 02:46:50;;;;;;;25.42;14.80;;;6.40;99.90;;;;;;5049481;28;20297;-86
2021/03/03 02:49:19;;;;;;;19.90;13.40;;;6.30;99.90;;;;;;5035167;28;20623;-86
2021/03/03 02:51:46;;;;;;;21.20;12.95;;;6.40;99.90;;;;;;5034427;28;20211;-87
2021/03/03 02:54:13;;;;;;;19.85;12.25;;;6.40;99.90;;;;;;5037676;28;20223;-87
2021/03/03 02:56:39;;;;;;;21.15;11.98;;;6.50;99.90;;;;;;5043463;28;20263;-85
2021/03/03 02:59:16;;;;;;;22.52;13.15;;;6.50;99.90;;;;;;5054922;28;20283;-83
2021/03/03 03:01:47;;;;;;;22.90;12.20;;;6.30;99.90;;;;;;5046364;28;20206;-87
2021/03/03 03:04:14;;;;;;;22.75;12.02;;;6.20;99.90;;;;;;5040009;28;20227;-85
2021/03/03 03:06:43;;;;;;;29.83;14.02;;;6.30;99.90;;;;;;5040055;28;20659;-86
2021/03/03 03:09:14;;;;;;;20.90;12.30;;;6.10;99.90;;;;;;5050555;28;20628;-86
2021/03/03 03:11:47;;;;;;;23.08;12.68;;;6.10;99.90;;;;;;5055968;28;20216;-86
2021/03/03 03:14:18;;;;;;;29.00;15.02;;;6.30;99.90;;;;;;5058849;28;20587;-87
2021/03/03 03:16:47;;;;;;;24.33;13.80;;;6.00;99.90;;;;;;5059553;28;20575;-87
2021/03/03 03:19:17;;;;;;;24.27;13.23;;;6.00;99.90;;;;;;5057760;28;20238;-86
2021/03/03 03:21:46;;;;;;;22.58;13.57;;;6.00;99.90;;;;;;5042896;28;20238;-85
2021/03/03 03:24:15;;;;;;;21.50;12.57;;;6.10;99.90;;;;;;5043214;28;20286;-84
2021/03/03 03:26:42;;;;;;;26.10;13.10;;;6.00;99.90;;;;;;5048721;28;20199;-87
2021/03/03 03:29:10;;;;;;;23.27;13.77;;;5.80;99.90;;;;;;5042659;28;20282;-86
2021/03/03 03:31:38;;;;;;;22.58;13.30;;;6.00;99.90;;;;;;5057693;28;20206;-85
2021/03/03 03:34:06;;;;;;;29.73;14.38;;;6.10;99.90;;;;;;5051824;28;20222;-86
2021/03/03 03:36:34;;;;;;;24.85;14.70;;;6.10;99.90;;;;;;5037786;28;20739;-87
2021/03/03 03:39:02;;;;;;;24.30;12.98;;;6.20;99.90;;;;;;5038068;28;20628;-86
2021/03/03 03:41:29;;;;;;;25.33;13.40;;;6.00;99.90;;;;;;5057520;28;20217;-86
2021/03/03 03:43:58;;;;;;;21.83;12.57;;;6.20;99.90;;;;;;5057969;28;20226;-86
2021/03/03 03:46:25;;;;;;;21.73;12.68;;;6.10;99.90;;;;;;5017799;28;20303;-86
2021/03/03 03:48:52;;;;;;;20.35;11.95;;;6.20;99.90;;;;;;5037797;28;20638;-85
2021/03/03 03:51:19;;;;;;;23.00;12.88;;;6.20;99.90;;;;;;5057724;28;20210;-85
2021/03/03 03:53:46;;;;;;;23.08;13.73;;;6.10;99.90;;;;;;5047577;28;20784;-86
2021/03/03 03:56:12;;;;;;;28.75;14.05;;;6.00;99.90;;;;;;5037105;28;20285;-85
2021/03/03 03:58:38;;;;;;;23.67;13.48;;;6.00;99.90;;;;;;5038244;28;20215;-86
2021/03/03 04:01:05;;;;;;;25.33;13.18;;;6.00;99.90;;;;;;5027160;28;20239;-86
2021/03/03 04:03:32;;;;;;;19.58;12.63;;;6.10;99.90;;;;;;5055693;28;20240;-86
2021/03/03 04:05:59;;;;;;;21.65;12.40;;;5.90;99.90;;;;;;5062870;28;20271;-86
2021/03/03 04:08:26;;;;;;;26.27;14.57;;;6.10;99.90;;;;;;5058043;28;20191;-86
2021/03/03 04:10:52;;;;;;;25.25;13.05;;;5.90;99.90;;;;;;5055094;28;20590;-85
2021/03/03 04:13:20;;;;;;;23.95;12.75;;;5.80;99.90;;;;;;5039988;28;20314;-85
2021/03/03 04:15:46;;;;;;;20.42;12.38;;;5.90;99.90;;;;;;5044141;28;20207;-84
2021/03/03 04:18:13;;;;;;;22.80;13.35;;;5.90;99.90;;;;;;5055468;28;20305;-83
2021/03/03 04:20:41;;;;;;;22.90;12.50;;;6.00;99.90;;;;;;5060518;28;20206;-86
2021/03/03 04:23:08;;;;;;;24.65;13.20;;;6.00;99.90;;;;;;5067998;28;20207;-84
2021/03/03 04:25:35;;;;;;;22.58;12.85;;;5.90;99.90;;;;;;5074827;28;20191;-85
2021/03/03 04:28:01;;;;;;;26.60;14.05;;;6.00;99.90;;;;;;5063789;28;20279;-86
2021/03/03 04:30:28;;;;;;;28.73;13.50;;;5.90;99.90;;;;;;5074021;28;20659;-84
2021/03/03 04:32:54;;;;;;;26.45;13.90;;;6.00;99.90;;;;;;5077100;28;20222;-85
2021/03/03 04:35:20;;;;;;;21.05;13.02;;;5.80;99.90;;;;;;5053224;28;20593;-86
2021/03/03 04:37:47;;;;;;;24.95;14.07;;;6.00;99.90;;;;;;5037366;28;20290;-86
2021/03/03 04:40:14;;;;;;;27.17;14.85;;;6.20;99.90;;;;;;5053455;28;20204;-86
2021/03/03 04:42:41;;;;;;;25.55;14.27;;;6.00;99.90;;;;;;5048667;28;20666;-86
2021/03/03 04:45:09;;;;;;;30.67;14.07;;;6.00;99.90;;;;;;5036304;28;20199;-85
2021/03/03 04:47:36;;;;;;;25.10;14.55;;;6.00;99.90;;;;;;5035548;28;20210;-86
2021/03/03 04:50:04;;;;;;;26.15;14.20;;;6.00;99.90;;;;;;5036505;28;20333;-84
2021/03/03 04:52:31;;;;;;;28.02;13.38;;;5.70;99.90;;;;;;5036704;28;20656;-87
2021/03/03 04:54:57;;;;;;;21.50;13.18;;;5.80;99.90;;;;;;5036588;28;20312;-85
2021/03/03 04:57:23;;;;;;;30.83;14.77;;;6.20;99.90;;;;;;5040623;28;20207;-85
2021/03/03 04:59:51;;;;;;;24.08;14.20;;;6.10;99.90;;;;;;5056510;28;20257;-84
2021/03/03 05:02:17;;;;;;;23.50;14.45;;;6.10;99.90;;;;;;5056846;28;20617;-83
2021/03/03 05:04:45;;;;;;;24.60;13.75;;;5.90;99.90;;;;;;5061934;28;20257;-85
2021/03/03 05:07:11;;;;;;;25.00;15.00;;;6.10;99.90;;;;;;5057103;28;20245;-85
2021/03/03 05:09:38;;;;;;;22.98;13.38;;;6.00;99.90;;;;;;5059238;28;20206;-84
2021/03/03 05:12:05;;;;;;;27.70;13.73;;;6.10;99.90;;;;;;5055137;28;20567;-85
2021/03/03 05:14:32;;;;;;;27.30;14.10;;;5.90;99.90;;;;;;5037219;28;20238;-86
2021/03/03 05:16:59;;;;;;;27.13;14.07;;;6.00;99.90;;;;;;5038762;28;20199;-85
2021/03/03 05:19:25;;;;;;;27.75;14.38;;;6.10;99.90;;;;;;5040079;28;20250;-85
2021/03/03 05:21:52;;;;;;;25.02;13.88;;;5.80;99.90;;;;;;5064852;28;20272;-86
2021/03/03 05:24:18;;;;;;;24.50;14.30;;;5.80;99.90;;;;;;5054559;28;20306;-86
2021/03/03 05:26:44;;;;;;;29.25;15.23;;;6.00;99.90;;;;;;5048904;28;20207;-85
2021/03/03 05:29:11;;;;;;;28.10;14.00;;;6.00;99.90;;;;;;5047244;28;20231;-85
2021/03/03 05:31:37;;;;;;;27.90;15.52;;;5.80;99.90;;;;;;5068265;28;20274;-85
2021/03/03 05:34:04;;;;;;;24.58;14.57;;;5.90;99.90;;;;;;5047397;28;20223;-86
2021/03/03 05:36:31;;;;;;;23.30;13.48;;;5.80;99.90;;;;;;5038127;28;20246;-84
2021/03/03 05:38:57;;;;;;;24.10;15.02;;;6.20;99.90;;;;;;5038527;28;20277;-85
2021/03/03 05:41:25;;;;;;;26.75;14.95;;;6.00;99.90;;;;;;5035765;28;20289;-87
2021/03/03 05:43:52;;;;;;;24.70;14.95;;;6.00;99.90;;;;;;5029791;28;20242;-85
2021/03/03 05:46:19;;;;;;;25.58;15.55;;;5.90;99.90;;;;;;5039005;28;20570;-85
2021/03/03 05:48:50;;;;;;;31.52;15.95;;;6.00;99.90;;;;;;5037786;28;20211;-86
2021/03/03 05:51:17;;;;;;;32.83;14.07;;;5.90;99.90;;;;;;5038028;28;20184;-85
2021/03/03 05:53:44;;;;;;;24.08;14.68;;;5.80;99.90;;;;;;5044737;28;20583;-85
2021/03/03 05:56:11;;;;;;;27.25;14.95;;;5.80;99.90;;;;;;5038577;28;20235;-85
2021/03/03 05:58:39;;;;;;;26.20;15.25;;;6.10;99.90;;;;;;5058627;28;20226;-84
2021/03/03 06:01:08;;;;;;;23.85;14.70;;;6.00;99.90;;;;;;5061401;28;20231;-85
2021/03/03 06:03:35;;;;;;;29.40;15.60;;;6.10;99.90;;;;;;5046577;28;20281;-85
2021/03/03 06:06:02;;;;;;;25.88;13.50;;;6.00;99.90;;;;;;5047126;28;20207;-86
2021/03/03 06:08:30;;;;;;;29.98;15.60;;;6.30;99.90;;;;;;5057084;28;20206;-85
2021/03/03 06:10:58;;;;;;;25.20;15.23;;;6.10;99.90;;;;;;5056428;28;20205;-86
2021/03/03 06:13:26;;;;;;;25.45;15.13;;;6.20;99.90;;;;;;5053662;28;20215;-84
2021/03/03 06:15:52;;;;;;;26.90;14.63;;;6.10;99.90;;;;;;5036746;28;20274;-87
2021/03/03 06:18:21;;;;;;;26.75;15.82;;;6.10;99.90;;;;;;5037056;28;20237;-84
2021/03/03 06:20:48;;;;;;;24.00;14.60;;;6.20;99.90;;;;;;5035977;28;20600;-87
2021/03/03 06:23:17;;;;;;;30.83;16.25;;;5.90;99.90;;;;;;5038967;28;20702;-86
2021/03/03 06:25:45;;;;;;;32.55;14.55;;;6.00;99.90;;;;;;5038587;28;20235;-85
2021/03/03 06:28:30;;;;;;;28.25;16.70;;;6.10;99.90;;;;;;5049266;28;20203;-87
2021/03/03 06:30:56;;;;;;;28.85;15.63;;;6.00;99.90;;;;;;5057109;28;20274;-87
2021/03/03 06:33:24;;;;;;;26.98;14.90;;;6.20;99.90;;;;;;5056562;28;20218;-86
2021/03/03 06:35:52;;;;;;;39.53;16.77;;;6.20;99.90;;;;;;5043929;28;20203;-86
2021/03/03 06:38:29;;;;;;;30.63;15.18;;;6.10;99.90;;;;;;5053439;28;20332;-87
2021/03/03 06:40:58;;;;;;;31.05;15.98;;;6.20;99.90;;;;;;5053948;28;20210;-86
2021/03/03 06:43:26;;;;;;;27.80;15.63;;;6.30;99.90;;;;;;5061073;28;20218;-87
2021/03/03 06:45:53;;;;;;;26.60;15.45;;;6.10;99.90;;;;;;5049734;28;20211;-86
2021/03/03 06:48:37;;;;;;;26.90;14.60;;;6.30;99.90;;;;;;5047925;28;20547;-87
2021/03/03 06:51:22;;;;;;;28.00;15.20;;;6.20;99.90;;;;;;5048752;28;20217;-84
2021/03/03 06:53:49;;;;;;;31.85;16.20;;;6.30;99.90;;;;;;5061905;28;20246;-84
2021/03/03 06:56:31;;;;;;;29.58;15.63;;;6.40;99.90;;;;;;5075380;28;20187;-82
2021/03/03 06:59:09;;;;;;;26.83;15.90;;;6.40;99.90;;;;;;5071826;28;20226;-84
2021/03/03 07:01:36;;;;;;;27.08;15.32;;;6.50;99.90;;;;;;5053527;28;20257;-86
2021/03/03 07:04:02;;;;;;;23.17;14.48;;;6.20;99.90;;;;;;5040263;28;20244;-86
2021/03/03 07:06:32;;;;;;;29.98;15.88;;;6.30;99.90;;;;;;5039068;28;20203;-87
2021/03/03 07:08:59;;;;;;;25.77;14.50;;;6.50;99.90;;;;;;5056823;28;20195;-85
2021/03/03 07:11:29;;;;;;;26.88;16.40;;;6.60;99.90;;;;;;5041936;28;20238;-86
2021/03/03 07:13:57;;;;;;;23.60;14.80;;;6.40;99.90;;;;;;5039082;28;20291;-84
2021/03/03 07:16:24;;;;;;;24.48;15.15;;;6.40;99.90;;;;;;5048674;28;20207;-85
2021/03/03 07:18:50;;;;;;;49.42;16.55;;;6.50;99.90;;;;;;5058278;28;20309;-86
2021/03/03 07:21:36;;;;;;;25.17;15.02;;;6.60;99.90;;;;;;5047833;28;20199;-84
2021/03/03 07:24:04;;;;;;;30.23;16.90;;;6.90;99.90;;;;;;5051049;28;20231;-84
2021/03/03 07:26:32;;;;;;;24.00;14.70;;;6.80;99.90;;;;;;5026775;28;20238;-87
2021/03/03 07:29:01;;;;;;;23.95;15.85;;;6.90;99.90;;;;;;5037718;28;20209;-86
2021/03/03 07:31:28;;;;;;;23.73;15.63;;;6.80;99.90;;;;;;5059431;28;20260;-86
2021/03/03 07:33:57;;;;;;;26.88;15.55;;;6.90;99.90;;;;;;5050978;28;20219;-86
2021/03/03 07:36:23;;;;;;;26.98;15.05;;;7.10;99.90;;;;;;5042010;28;20237;-84
2021/03/03 07:38:51;;;;;;;22.00;15.18;;;7.30;99.90;;;;;;5054578;28;20215;-85
2021/03/03 07:41:17;;;;;;;24.92;15.55;;;7.10;99.90;;;;;;5055197;28;20208;-86
2021/03/03 07:43:49;;;;;;;27.25;15.32;;;7.40;99.90;;;;;;5052384;28;20234;-86
2021/03/03 07:46:16;;;;;;;31.05;15.00;;;7.30;99.90;;;;;;5069707;28;20187;-84
2021/03/03 07:48:47;;;;;;;26.52;17.58;;;7.60;99.90;;;;;;5077771;28;20548;-86
2021/03/03 07:51:14;;;;;;;24.73;15.40;;;7.60;99.90;;;;;;5069705;28;20223;-85
2021/03/03 07:53:41;;;;;;;25.25;15.13;;;8.00;99.90;;;;;;5063221;28;20313;-85
2021/03/03 07:56:08;;;;;;;26.25;14.95;;;7.80;99.90;;;;;;5061571;28;20195;-85
2021/03/03 07:58:36;;;;;;;25.52;15.35;;;7.70;99.90;;;;;;5064071;28;20257;-86
2021/03/03 08:01:04;;;;;;;29.50;15.07;;;7.60;99.90;;;;;;5070851;28;20526;-84
2021/03/03 08:03:44;;;;;;;27.13;16.40;;;7.60;99.90;;;;;;5046049;28;20620;-81
2021/03/03 08:06:24;;;;;;;24.70;15.13;;;7.90;99.90;;;;;;5056378;28;20209;-84
2021/03/03 08:09:13;;;;;;;25.10;14.63;;;8.00;99.90;;;;;;5060876;28;20441;-86
2021/03/03 08:11:42;;;;;;;25.47;15.50;;;8.20;99.90;;;;;;5051566;28;20195;-84
2021/03/03 08:14:44;;;;;;;28.10;14.80;;;8.30;99.90;;;;;;5040980;28;20592;-86
2021/03/03 08:17:12;;;;;;;27.67;16.10;;;8.60;99.90;;;;;;5040218;28;20446;-85
2021/03/03 08:19:51;;;;;;;27.05;16.23;;;8.70;99.90;;;;;;5040492;28;20310;-85
2021/03/03 08:22:18;;;;;;;29.90;17.10;;;8.80;99.90;;;;;;5053433;28;20203;-86
2021/03/03 08:24:45;;;;;;;28.02;17.08;;;8.80;99.90;;;;;;5049501;28;20478;-82
2021/03/03 08:27:45;;;;;;;26.33;14.57;;;8.80;99.90;;;;;;5044105;28;20295;-82
2021/03/03 08:30:13;;;;;;;32.20;17.50;;;8.70;99.90;;;;;;4978619;28;20501;-83
2021/03/03 08:32:41;;;;;;;24.50;15.60;;;9.10;99.90;;;;;;4978874;28;20464;-82
2021/03/03 08:35:08;;;;;;;34.63;16.70;;;9.10;99.90;;;;;;5006080;28;20552;-82
2021/03/03 08:37:36;;;;;;;22.03;15.70;;;8.90;99.90;;;;;;5039108;28;20525;-82
2021/03/03 08:40:05;;;;;;;30.87;15.80;;;9.40;99.90;;;;;;5038216;28;20526;-82
2021/03/03 08:42:40;;;;;;;25.97;16.03;;;9.50;99.90;;;;;;5038986;28;21225;-82
2021/03/03 08:45:12;;;;;;;28.10;16.60;;;9.50;99.90;;;;;;5048858;28;20487;-83
2021/03/03 08:48:00;;;;;;;25.33;15.00;;;9.40;99.90;;;;;;5036669;28;20511;-83
2021/03/03 08:50:38;;;;;;;24.40;15.37;;;9.60;99.90;;;;;;5036955;28;20794;-83
2021/03/03 08:53:34;;;;;;;27.03;17.63;;;9.80;99.90;;;;;;5053281;28;20445;-82
2021/03/03 08:56:35;;;;;;;28.50;16.63;;;9.70;99.90;;;;;;5045172;28;20480;-84
2021/03/03 08:59:03;;;;;;;23.10;16.73;;;9.70;99.90;;;;;;5033030;28;20478;-83
2021/03/03 09:01:57;;;;;;;27.27;15.77;;;9.70;99.90;;;;;;5039990;28;20972;-83
2021/03/03 09:04:27;;;;;;;28.20;18.20;;;9.70;99.90;;;;;;5005399;28;20462;-81
2021/03/03 09:06:56;;;;;;;31.03;17.70;;;9.70;99.90;;;;;;5051321;28;20876;-79
2021/03/03 09:09:23;;;;;;;31.50;16.87;;;9.50;99.90;;;;;;5046258;28;20461;-84
2021/03/03 09:11:59;;;;;;;30.63;16.10;;;9.40;99.90;;;;;;5040663;28;20469;-83
2021/03/03 09:14:25;;;;;;;27.17;17.33;;;9.40;99.90;;;;;;5039532;28;20533;-82
2021/03/03 09:17:00;;;;;;;28.10;17.70;;;9.40;99.90;;;;;;5040912;28;20461;-83
2021/03/03 09:19:27;;;;;;;34.90;16.43;;;9.30;99.90;;;;;;5040390;28;20543;-83
2021/03/03 09:21:54;;;;;;;33.60;17.63;;;9.50;99.90;;;;;;5041182;28;20529;-84
2021/03/03 09:24:21;;;;;;;31.60;17.67;;;9.60;99.90;;;;;;5038596;28;20520;-83
2021/03/03 09:26:47;;;;;;;32.40;19.10;;;9.70;99.90;;;;;;5038619;28;20449;-82
2021/03/03 09:29:30;;;;;;;31.83;17.30;;;9.80;99.90;;;;;;5038557;28;20450;-83
2021/03/03 09:31:57;;;;;;;36.80;18.10;;;9.70;99.90;;;;;;5044652;28;20506;-80
2021/03/03 09:34:24;;;;;;;27.57;16.57;;;9.90;99.90;;;;;;5042201;28;21003;-82
2021/03/03 09:36:55;;;;;;;28.27;18.80;;;10.00;99.90;;;;;;5040011;28;20476;-82
2021/03/03 09:39:24;;;;;;;30.80;16.93;;;10.10;99.90;;;;;;5043896;28;20453;-82
2021/03/03 09:41:58;;;;;;;30.33;18.87;;;10.30;99.90;;;;;;5038765;28;20484;-81
2021/03/03 09:44:25;;;;;;;39.00;19.47;;;10.20;99.90;;;;;;5039721;28;20507;-89
2021/03/03 09:46:57;;;;;;;28.57;17.43;;;10.30;99.90;;;;;;5038821;28;20446;-81
2021/03/03 09:49:28;;;;;;;29.53;17.90;;;10.20;99.90;;;;;;5039445;28;20913;-82
2021/03/03 09:51:56;;;;;;;34.47;18.30;;;10.30;99.90;;;;;;5040520;28;20532;-82
2021/03/03 09:54:31;;;;;;;23.07;15.60;;;10.50;99.90;;;;;;5037702;28;20504;-82
2021/03/03 09:57:11;;;;;;;31.90;18.30;;;10.40;99.90;;;;;;5039470;28;20449;-87
2021/03/03 09:59:40;;;;;;;30.83;17.67;;;10.50;99.90;;;;;;5040650;28;20489;-86
2021/03/03 10:02:09;;;;;;;30.30;18.00;;;10.40;99.90;;;;;;5033381;28;20469;-85
2021/03/03 10:04:43;;;;;;;33.83;17.37;;;10.50;99.90;;;;;;5042441;28;20972;-86
2021/03/03 10:07:14;;;;;;;38.20;18.37;;;10.50;99.90;;;;;;5042190;28;20396;-86
2021/03/03 10:09:42;;;;;;;27.47;18.40;;;10.50;99.90;;;;;;5044541;28;20500;-86
2021/03/03 10:12:10;;;;;;;33.40;17.87;;;10.50;99.90;;;;;;5045624;28;20514;-86
2021/03/03 10:14:55;;;;;;;35.03;18.13;;;10.60;99.90;;;;;;5045254;28;20497;-86
2021/03/03 10:17:34;;;;;;;32.43;19.10;;;10.60;99.90;;;;;;5045552;28;20530;-86
2021/03/03 10:20:02;;;;;;;32.23;18.83;;;10.70;99.90;;;;;;5044501;28;20496;-86
2021/03/03 10:22:30;;;;;;;28.13;18.17;;;10.70;99.90;;;;;;5058833;28;20514;-85
2021/03/03 10:24:58;;;;;;;35.40;19.37;;;10.60;99.90;;;;;;5053345;28;20798;-86
2021/03/03 10:27:25;;;;;;;33.47;19.70;;;10.60;99.90;;;;;;5055843;28;20429;-86
2021/03/03 10:29:51;;;;;;;28.60;18.00;;;10.60;99.90;;;;;;5056275;28;20466;-86
2021/03/03 10:32:18;;;;;;;38.50;19.60;;;10.80;99.90;;;;;;5055901;28;20428;-87
2021/03/03 10:34:45;;;;;;;45.03;20.50;;;10.80;99.90;;;;;;5056024;28;20473;-86
2021/03/03 10:37:25;;;;;;;34.27;18.43;;;10.80;99.90;;;;;;5055569;28;20442;-86
2021/03/03 10:39:52;;;;;;;33.03;18.63;;;10.90;99.90;;;;;;5056969;28;20531;-84
2021/03/03 10:42:23;;;;;;;38.20;20.03;;;10.90;99.90;;;;;;5054464;28;20483;-86
2021/03/03 10:44:52;;;;;;;30.60;19.17;;;11.10;99.90;;;;;;5045723;28;20437;-85
2021/03/03 10:47:40;;;;;;;33.73;18.77;;;10.90;99.90;;;;;;5042192;28;20454;-86
2021/03/03 10:50:09;;;;;;;32.83;17.77;;;11.00;99.90;;;;;;5039792;28;20475;-86
2021/03/03 10:52:36;;;;;;;31.23;17.40;;;11.20;99.90;;;;;;5041525;28;20491;-85
2021/03/03 10:55:16;;;;;;;32.47;18.50;;;11.10;99.90;;;;;;5050319;28;20446;-84
2021/03/03 10:57:57;;;;;;;27.23;17.37;;;11.10;99.90;;;;;;5054715;28;20445;-85
2021/03/03 11:00:24;;;;;;;32.43;19.93;;;11.10;99.70;;;;;;5045175;28;20480;-85
2021/03/03 11:03:02;;;;;;;29.13;18.10;;;11.20;99.70;;;;;;5055218;28;20449;-85
2021/03/03 11:05:29;;;;;;;33.47;19.93;;;11.40;99.60;;;;;;5055367;28;20446;-84
2021/03/03 11:07:56;;;;;;;32.60;18.00;;;11.40;99.70;;;;;;5040766;28;20641;-86
2021/03/03 11:10:23;;;;;;;34.20;19.77;;;11.50;99.50;;;;;;5039393;28;20456;-86
2021/03/03 11:12:50;;;;;;;30.70;19.20;;;11.50;99.30;;;;;;5039843;28;20567;-83
2021/03/03 11:15:17;;;;;;;33.67;22.87;;;11.50;99.10;;;;;;5043190;28;20470;-85
2021/03/03 11:17:43;;;;;;;29.13;19.13;;;11.50;99.20;;;;;;5043294;28;20434;-86
2021/03/03 11:20:11;;;;;;;34.80;19.37;;;11.60;99.20;;;;;;5042894;28;20528;-85
2021/03/03 11:22:39;;;;;;;30.93;19.47;;;11.70;98.70;;;;;;5043061;28;20529;-85
2021/03/03 11:25:06;;;;;;;32.37;18.30;;;11.80;98.70;;;;;;5044750;28;20465;-85
2021/03/03 11:27:32;;;;;;;32.70;18.57;;;11.70;98.50;;;;;;5048315;28;20455;-85
2021/03/03 11:29:59;;;;;;;32.13;21.03;;;11.90;98.40;;;;;;5044320;28;20442;-85
2021/03/03 11:32:25;;;;;;;32.03;18.40;;;11.80;98.60;;;;;;5051676;28;20454;-85
2021/03/03 11:34:52;;;;;;;30.23;19.57;;;11.90;98.40;;;;;;5044977;28;20827;-86
2021/03/03 11:37:18;;;;;;;34.47;20.40;;;12.00;98.30;;;;;;5042703;28;20547;-85
2021/03/03 11:39:45;;;;;;;30.73;20.43;;;12.10;98.40;;;;;;5043687;28;20524;-84
2021/03/03 11:42:12;;;;;;;29.03;19.80;;;12.30;97.80;;;;;;5041619;28;20450;-85
2021/03/03 11:44:39;;;;;;;32.87;19.50;;;12.30;97.70;;;;;;5042638;28;20819;-86
2021/03/03 11:47:05;;;;;;;27.20;18.20;;;12.20;97.70;;;;;;5045410;28;20537;-86
2021/03/03 11:49:32;;;;;;;31.27;21.23;;;12.20;97.80;;;;;;5042840;28;20438;-80
2021/03/03 11:51:58;;;;;;;31.10;19.50;;;12.20;97.90;;;;;;5039818;28;20457;-79
2021/03/03 11:54:24;;;;;;;44.30;21.40;;;12.20;97.80;;;;;;5040206;28;20440;-78
2021/03/03 11:56:52;;;;;;;30.63;19.47;;;12.30;97.80;;;;;;5042548;28;20501;-83
2021/03/03 11:59:18;;;;;;;30.63;20.20;;;12.30;97.80;;;;;;5042525;28;20568;-83
2021/03/03 12:01:45;;;;;;;28.43;18.97;;;12.30;97.90;;;;;;5042320;28;20488;-82
2021/03/03 12:04:11;;;;;;;30.87;19.60;;;12.40;97.50;;;;;;5045433;28;21031;-82
2021/03/03 12:06:38;;;;;;;29.57;20.43;;;12.50;97.60;;;;;;5043127;28;20436;-82
2021/03/03 12:09:05;;;;;;;34.80;19.17;;;12.50;97.40;;;;;;5042514;28;20998;-82
2021/03/03 12:11:31;;;;;;;31.90;20.27;;;12.40;97.40;;;;;;5041255;28;20518;-83
2021/03/03 12:13:58;;;;;;;35.70;17.40;;;12.50;97.30;;;;;;5040680;28;20558;-83
2021/03/03 12:16:24;;;;;;;28.93;18.60;;;12.50;97.40;;;;;;5040384;28;20484;-83
2021/03/03 12:18:51;;;;;;;25.50;18.87;;;12.40;97.50;;;;;;5041836;28;20619;-83
2021/03/03 12:21:17;;;;;;;25.57;17.83;;;12.40;97.50;;;;;;5055516;28;20534;-81
2021/03/03 12:23:44;;;;;;;27.30;19.93;;;12.50;97.40;;;;;;5047620;28;20482;-81
2021/03/03 12:26:10;;;;;;;28.07;19.17;;;12.50;97.30;;;;;;5050003;28;20461;-87
2021/03/03 12:28:37;;;;;;;33.77;19.43;;;12.60;97.40;;;;;;5060936;28;20561;-87
2021/03/03 12:31:06;;;;;;;29.80;19.20;;;12.60;97.40;;;;;;5044556;28;20453;-87
2021/03/03 12:33:33;;;;;;;30.30;18.47;;;12.70;97.20;;;;;;5056957;28;20523;-80
2021/03/03 12:36:00;;;;;;;41.90;20.03;;;12.80;97.00;;;;;;5051898;28;20619;-80
2021/03/03 12:38:26;;;;;;;28.90;20.03;;;12.80;96.90;;;;;;5042957;28;20442;-85
2021/03/03 12:40:53;;;;;;;29.90;19.00;;;12.90;96.70;;;;;;5046921;28;20434;-86
2021/03/03 12:43:19;;;;;;;31.27;20.13;;;12.80;96.70;;;;;;5054231;28;20445;-88